sensor_id;sensor_type;location;lat;lon;timestamp;P1;durP1;ratioP1;P2;durP2;ratioP2
20593;SDS011;10455;48.732;10.266;2023-04-29T00:04:20;0.20;;;0.20;;
20593;SDS011;10455;48.732;10.266;2023-04-29T00:09:23;0.20;;;0.20;;
20593;SDS011;10455;48.732;10.266;2023-04-29T00:14:26;0.20;;;0.20;;
20593;SDS011;10455;48.732;10.266;2023-04-29T00:19:28;0.30;;;0.30;;
20593;SDS011;10455;48.732;10.266;2023-04-29T00:24:30;0.30;;;0.30;;
20593;SDS011;10455;48.732;10.266;2023-04-29T00:29:33;0.20;;;0.20;;
20593;SDS011;10455;48.732;10.266;2023-04-29T00:34:35;0.20;;;0.20;;
20593;SDS011;10455;48.732;10.266;2023-04-29T00:39:38;0.30;;;0.30;;
20593;SDS011;10455;48.732;10.266;2023-04-29T00:44:41;0.30;;;0.30;;
20593;SDS011;10455;48.732;10.266;2023-04-29T00:49:43;0.30;;;0.30;;
20593;SDS011;10455;48.732;10.266;2023-04-29T00:54:45;0.27;;;0.27;;
20593;SDS011;10455;48.732;10.266;2023-04-29T00:59:49;0.20;;;0.20;;
20593;SDS011;10455;48.732;10.266;2023-04-29T01:04:51;0.20;;;0.20;;
20593;SDS011;10455;48.732;10.266;2023-04-29T01:09:54;0.20;;;0.20;;
20593;SDS011;10455;48.732;10.266;2023-04-29T01:15:07;0.20;;;0.20;;
20593;SDS011;10455;48.732;10.266;2023-04-29T01:20:12;0.20;;;0.20;;
20593;SDS011;10455;48.732;10.266;2023-04-29T01:25:17;0.30;;;0.30;;
20593;SDS011;10455;48.732;10.266;2023-04-29T01:30:21;0.20;;;0.20;;
20593;SDS011;10455;48.732;10.266;2023-04-29T01:35:35;0.20;;;0.20;;
20593;SDS011;10455;48.732;10.266;2023-04-29T01:40:47;0.20;;;0.20;;
20593;SDS011;10455;48.732;10.266;2023-04-29T01:45:55;0.20;;;0.20;;
20593;SDS011;10455;48.732;10.266;2023-04-29T01:50:59;0.20;;;0.20;;
20593;SDS011;10455;48.732;10.266;2023-04-29T01:56:03;0.20;;;0.20;;
20593;SDS011;10455;48.732;10.266;2023-04-29T02:01:05;0.20;;;0.20;;
20593;SDS011;10455;48.732;10.266;2023-04-29T02:06:09;0.10;;;0.10;;
20593;SDS011;10455;48.732;10.266;2023-04-29T02:11:12;0.20;;;0.20;;
20593;SDS011;10455;48.732;10.266;2023-04-29T02:16:15;0.20;;;0.20;;
20593;SDS011;10455;48.732;10.266;2023-04-29T02:21:17;0.83;;;0.83;;
20593;SDS011;10455;48.732;10.266;2023-04-29T02:26:20;0.20;;;0.20;;
20593;SDS011;10455;48.732;10.266;2023-04-29T02:31:22;0.20;;;0.20;;
20593;SDS011;10455;48.732;10.266;2023-04-29T02:36:25;3.40;;;3.20;;
20593;SDS011;10455;48.732;10.266;2023-04-29T02:41:28;0.20;;;0.20;;
20593;SDS011;10455;48.732;10.266;2023-04-29T02:46:30;0.20;;;0.20;;
20593;SDS011;10455;48.732;10.266;2023-04-29T02:51:34;0.20;;;0.20;;
20593;SDS011;10455;48.732;10.266;2023-04-29T02:56:37;0.20;;;0.20;;
20593;SDS011;10455;48.732;10.266;2023-04-29T03:01:39;0.20;;;0.20;;
20593;SDS011;10455;48.732;10.266;2023-04-29T03:06:42;0.20;;;0.20;;
20593;SDS011;10455;48.732;10.266;2023-04-29T03:11:45;0.20;;;0.20;;
20593;SDS011;10455;48.732;10.266;2023-04-29T03:16:47;0.77;;;0.70;;
20593;SDS011;10455;48.732;10.266;2023-04-29T03:21:49;0.20;;;0.20;;
20593;SDS011;10455;48.732;10.266;2023-04-29T03:26:53;0.20;;;0.20;;
20593;SDS011;10455;48.732;10.266;2023-04-29T03:31:55;0.20;;;0.20;;
20593;SDS011;10455;48.732;10.266;2023-04-29T03:36:57;0.20;;;0.20;;
20593;SDS011;10455;48.732;10.266;2023-04-29T03:42:01;0.20;;;0.20;;
20593;SDS011;10455;48.732;10.266;2023-04-29T03:47:03;0.20;;;0.20;;
20593;SDS011;10455;48.732;10.266;2023-04-29T03:52:07;0.20;;;0.20;;
20593;SDS011;10455;48.732;10.266;2023-04-29T03:57:13;0.20;;;0.20;;
20593;SDS011;10455;48.732;10.266;2023-04-29T04:02:15;0.20;;;0.20;;
20593;SDS011;10455;48.732;10.266;2023-04-29T04:07:17;0.20;;;0.20;;
20593;SDS011;10455;48.732;10.266;2023-04-29T04:12:21;0.20;;;0.20;;
20593;SDS011;10455;48.732;10.266;2023-04-29T04:17:23;0.20;;;0.20;;
20593;SDS011;10455;48.732;10.266;2023-04-29T04:22:25;0.20;;;0.20;;
20593;SDS011;10455;48.732;10.266;2023-04-29T04:27:28;0.30;;;0.30;;
20593;SDS011;10455;48.732;10.266;2023-04-29T04:32:32;0.20;;;0.20;;
20593;SDS011;10455;48.732;10.266;2023-04-29T04:37:34;0.20;;;0.20;;
20593;SDS011;10455;48.732;10.266;2023-04-29T04:42:37;0.20;;;0.20;;
20593;SDS011;10455;48.732;10.266;2023-04-29T04:47:40;0.40;;;0.40;;
20593;SDS011;10455;48.732;10.266;2023-04-29T04:52:42;0.20;;;0.20;;
20593;SDS011;10455;48.732;10.266;2023-04-29T04:57:55;0.10;;;0.10;;
20593;SDS011;10455;48.732;10.266;2023-04-29T05:02:59;0.20;;;0.20;;
20593;SDS011;10455;48.732;10.266;2023-04-29T05:08:01;0.20;;;0.20;;
20593;SDS011;10455;48.732;10.266;2023-04-29T05:13:07;0.10;;;0.10;;
20593;SDS011;10455;48.732;10.266;2023-04-29T05:18:09;0.20;;;0.20;;
20593;SDS011;10455;48.732;10.266;2023-04-29T05:23:12;0.20;;;0.20;;
20593;SDS011;10455;48.732;10.266;2023-04-29T05:28:19;0.10;;;0.10;;
20593;SDS011;10455;48.732;10.266;2023-04-29T05:33:21;0.13;;;0.13;;
20593;SDS011;10455;48.732;10.266;2023-04-29T05:38:24;0.10;;;0.10;;
20593;SDS011;10455;48.732;10.266;2023-04-29T05:43:34;0.10;;;0.10;;
20593;SDS011;10455;48.732;10.266;2023-04-29T05:48:37;0.10;;;0.10;;
20593;SDS011;10455;48.732;10.266;2023-04-29T05:53:39;0.10;;;0.10;;
20593;SDS011;10455;48.732;10.266;2023-04-29T05:58:43;0.10;;;0.10;;
20593;SDS011;10455;48.732;10.266;2023-04-29T06:03:44;0.10;;;0.10;;
20593;SDS011;10455;48.732;10.266;2023-04-29T06:08:46;0.20;;;0.20;;
20593;SDS011;10455;48.732;10.266;2023-04-29T06:13:50;0.40;;;0.40;;
20593;SDS011;10455;48.732;10.266;2023-04-29T06:18:51;0.20;;;0.20;;
20593;SDS011;10455;48.732;10.266;2023-04-29T06:23:53;0.20;;;0.20;;
20593;SDS011;10455;48.732;10.266;2023-04-29T06:28:56;0.43;;;0.43;;
20593;SDS011;10455;48.732;10.266;2023-04-29T06:33:58;0.40;;;0.40;;
20593;SDS011;10455;48.732;10.266;2023-04-29T06:39:00;0.63;;;0.63;;
20593;SDS011;10455;48.732;10.266;2023-04-29T06:44:04;1.02;;;1.02;;
20593;SDS011;10455;48.732;10.266;2023-04-29T06:49:06;0.80;;;0.80;;
20593;SDS011;10455;48.732;10.266;2023-04-29T06:54:07;0.80;;;0.80;;
20593;SDS011;10455;48.732;10.266;2023-04-29T06:59:11;0.80;;;0.80;;
20593;SDS011;10455;48.732;10.266;2023-04-29T07:04:14;1.00;;;1.00;;
20593;SDS011;10455;48.732;10.266;2023-04-29T07:09:16;0.80;;;0.80;;
20593;SDS011;10455;48.732;10.266;2023-04-29T07:14:19;1.20;;;1.20;;
20593;SDS011;10455;48.732;10.266;2023-04-29T07:19:22;0.80;;;0.80;;
20593;SDS011;10455;48.732;10.266;2023-04-29T07:24:25;1.00;;;1.00;;
20593;SDS011;10455;48.732;10.266;2023-04-29T07:29:28;1.42;;;1.42;;
20593;SDS011;10455;48.732;10.266;2023-04-29T07:34:30;0.90;;;0.90;;
20593;SDS011;10455;48.732;10.266;2023-04-29T07:39:32;0.90;;;0.90;;
20593;SDS011;10455;48.732;10.266;2023-04-29T07:44:36;1.00;;;1.00;;
20593;SDS011;10455;48.732;10.266;2023-04-29T07:49:38;1.00;;;1.00;;
20593;SDS011;10455;48.732;10.266;2023-04-29T07:54:40;1.00;;;1.00;;
20593;SDS011;10455;48.732;10.266;2023-04-29T07:59:43;1.20;;;1.20;;
20593;SDS011;10455;48.732;10.266;2023-04-29T08:04:45;1.23;;;1.23;;
20593;SDS011;10455;48.732;10.266;2023-04-29T08:09:48;1.10;;;1.10;;
20593;SDS011;10455;48.732;10.266;2023-04-29T08:14:51;1.10;;;1.10;;
20593;SDS011;10455;48.732;10.266;2023-04-29T08:19:53;1.13;;;1.13;;
20593;SDS011;10455;48.732;10.266;2023-04-29T08:24:55;1.35;;;1.35;;
20593;SDS011;10455;48.732;10.266;2023-04-29T08:29:58;1.40;;;1.40;;
20593;SDS011;10455;48.732;10.266;2023-04-29T08:35:00;1.20;;;1.20;;
20593;SDS011;10455;48.732;10.266;2023-04-29T08:40:02;1.30;;;1.30;;
20593;SDS011;10455;48.732;10.266;2023-04-29T08:45:06;1.30;;;1.30;;
20593;SDS011;10455;48.732;10.266;2023-04-29T08:50:09;1.30;;;1.30;;
20593;SDS011;10455;48.732;10.266;2023-04-29T08:55:12;1.30;;;1.30;;
20593;SDS011;10455;48.732;10.266;2023-04-29T09:00:15;1.30;;;1.30;;
20593;SDS011;10455;48.732;10.266;2023-04-29T09:05:18;1.40;;;1.40;;
20593;SDS011;10455;48.732;10.266;2023-04-29T09:10:21;1.77;;;1.67;;
20593;SDS011;10455;48.732;10.266;2023-04-29T09:15:24;1.70;;;1.60;;
20593;SDS011;10455;48.732;10.266;2023-04-29T09:20:27;1.75;;;1.65;;
20593;SDS011;10455;48.732;10.266;2023-04-29T09:25:30;1.80;;;1.70;;
20593;SDS011;10455;48.732;10.266;2023-04-29T09:30:33;1.80;;;1.70;;
20593;SDS011;10455;48.732;10.266;2023-04-29T09:35:47;1.80;;;1.70;;
20593;SDS011;10455;48.732;10.266;2023-04-29T09:40:49;1.80;;;1.70;;
20593;SDS011;10455;48.732;10.266;2023-04-29T09:45:54;1.77;;;1.70;;
20593;SDS011;10455;48.732;10.266;2023-04-29T09:50:59;1.70;;;1.60;;
20593;SDS011;10455;48.732;10.266;2023-04-29T09:56:02;1.85;;;1.80;;
20593;SDS011;10455;48.732;10.266;2023-04-29T10:01:05;1.70;;;1.60;;
20593;SDS011;10455;48.732;10.266;2023-04-29T10:06:07;1.85;;;1.75;;
20593;SDS011;10455;48.732;10.266;2023-04-29T10:11:09;1.70;;;1.60;;
20593;SDS011;10455;48.732;10.266;2023-04-29T10:16:22;1.65;;;1.55;;
20593;SDS011;10455;48.732;10.266;2023-04-29T10:21:28;1.80;;;1.70;;
20593;SDS011;10455;48.732;10.266;2023-04-29T10:26:31;1.80;;;1.70;;
20593;SDS011;10455;48.732;10.266;2023-04-29T10:31:37;1.70;;;1.60;;
20593;SDS011;10455;48.732;10.266;2023-04-29T10:36:41;3.78;;;3.47;;
20593;SDS011;10455;48.732;10.266;2023-04-29T10:41:43;2.53;;;2.42;;
20593;SDS011;10455;48.732;10.266;2023-04-29T10:46:48;3.38;;;2.97;;
20593;SDS011;10455;48.732;10.266;2023-04-29T10:52:10;3.10;;;2.80;;
20593;SDS011;10455;48.732;10.266;2023-04-29T10:57:19;52.63;;;34.83;;
20593;SDS011;10455;48.732;10.266;2023-04-29T11:02:23;4.00;;;3.42;;
20593;SDS011;10455;48.732;10.266;2023-04-29T11:07:26;6.80;;;6.30;;
20593;SDS011;10455;48.732;10.266;2023-04-29T11:12:29;3.67;;;3.30;;
20593;SDS011;10455;48.732;10.266;2023-04-29T11:17:35;3.20;;;3.00;;
20593;SDS011;10455;48.732;10.266;2023-04-29T11:22:37;3.08;;;2.88;;
20593;SDS011;10455;48.732;10.266;2023-04-29T11:27:40;3.35;;;3.15;;
20593;SDS011;10455;48.732;10.266;2023-04-29T11:32:43;3.15;;;2.97;;
20593;SDS011;10455;48.732;10.266;2023-04-29T11:37:45;3.60;;;3.40;;
20593;SDS011;10455;48.732;10.266;2023-04-29T11:42:47;3.17;;;3.05;;
20593;SDS011;10455;48.732;10.266;2023-04-29T11:47:51;3.25;;;3.05;;
20593;SDS011;10455;48.732;10.266;2023-04-29T11:52:53;4.80;;;2.97;;
20593;SDS011;10455;48.732;10.266;2023-04-29T11:57:57;2.80;;;2.60;;
20593;SDS011;10455;48.732;10.266;2023-04-29T12:03:02;3.45;;;3.25;;
20593;SDS011;10455;48.732;10.266;2023-04-29T12:08:13;2.97;;;2.78;;
20593;SDS011;10455;48.732;10.266;2023-04-29T12:13:15;3.08;;;2.88;;
20593;SDS011;10455;48.732;10.266;2023-04-29T12:18:19;2.58;;;2.40;;
20593;SDS011;10455;48.732;10.266;2023-04-29T12:23:22;2.80;;;2.60;;
20593;SDS011;10455;48.732;10.266;2023-04-29T12:28:26;3.25;;;2.90;;
20593;SDS011;10455;48.732;10.266;2023-04-29T12:33:31;2.50;;;2.40;;
20593;SDS011;10455;48.732;10.266;2023-04-29T12:38:32;2.92;;;2.70;;
20593;SDS011;10455;48.732;10.266;2023-04-29T12:43:35;4.07;;;3.78;;
20593;SDS011;10455;48.732;10.266;2023-04-29T12:48:39;2.85;;;2.65;;
20593;SDS011;10455;48.732;10.266;2023-04-29T12:53:42;4.60;;;4.30;;
20593;SDS011;10455;48.732;10.266;2023-04-29T12:58:46;4.20;;;3.88;;
20593;SDS011;10455;48.732;10.266;2023-04-29T13:03:50;3.00;;;2.80;;
20593;SDS011;10455;48.732;10.266;2023-04-29T13:08:52;4.78;;;2.90;;
20593;SDS011;10455;48.732;10.266;2023-04-29T13:13:53;3.30;;;3.10;;
20593;SDS011;10455;48.732;10.266;2023-04-29T13:18:57;2.70;;;2.60;;
20593;SDS011;10455;48.732;10.266;2023-04-29T13:23:58;3.13;;;2.92;;
20593;SDS011;10455;48.732;10.266;2023-04-29T13:29:00;2.90;;;2.70;;
20593;SDS011;10455;48.732;10.266;2023-04-29T13:34:04;2.55;;;2.45;;
20593;SDS011;10455;48.732;10.266;2023-04-29T13:39:06;3.35;;;2.60;;
20593;SDS011;10455;48.732;10.266;2023-04-29T13:44:09;3.75;;;3.47;;
20593;SDS011;10455;48.732;10.266;2023-04-29T13:49:12;4.32;;;4.03;;
20593;SDS011;10455;48.732;10.266;2023-04-29T13:54:14;3.90;;;3.60;;
20593;SDS011;10455;48.732;10.266;2023-04-29T13:59:19;4.20;;;3.90;;
20593;SDS011;10455;48.732;10.266;2023-04-29T14:04:25;5.30;;;4.90;;
20593;SDS011;10455;48.732;10.266;2023-04-29T14:09:29;5.60;;;5.13;;
20593;SDS011;10455;48.732;10.266;2023-04-29T14:14:31;6.07;;;5.57;;
20593;SDS011;10455;48.732;10.266;2023-04-29T14:19:38;6.88;;;6.32;;
20593;SDS011;10455;48.732;10.266;2023-04-29T14:24:40;5.93;;;5.47;;
20593;SDS011;10455;48.732;10.266;2023-04-29T14:29:43;5.40;;;4.90;;
20593;SDS011;10455;48.732;10.266;2023-04-29T14:34:47;6.13;;;5.60;;
20593;SDS011;10455;48.732;10.266;2023-04-29T14:39:49;7.53;;;5.55;;
20593;SDS011;10455;48.732;10.266;2023-04-29T14:44:51;5.97;;;5.53;;
20593;SDS011;10455;48.732;10.266;2023-04-29T14:49:54;6.57;;;6.07;;
20593;SDS011;10455;48.732;10.266;2023-04-29T14:54:56;6.75;;;6.25;;
20593;SDS011;10455;48.732;10.266;2023-04-29T14:59:58;6.03;;;5.63;;
20593;SDS011;10455;48.732;10.266;2023-04-29T15:05:01;6.28;;;5.75;;
20593;SDS011;10455;48.732;10.266;2023-04-29T15:10:04;5.90;;;5.40;;
20593;SDS011;10455;48.732;10.266;2023-04-29T15:15:08;8.00;;;5.70;;
20593;SDS011;10455;48.732;10.266;2023-04-29T15:20:12;7.22;;;6.63;;
20593;SDS011;10455;48.732;10.266;2023-04-29T15:25:14;6.88;;;6.30;;
20593;SDS011;10455;48.732;10.266;2023-04-29T15:30:16;6.88;;;6.38;;
20593;SDS011;10455;48.732;10.266;2023-04-29T15:35:19;7.13;;;6.53;;
20593;SDS011;10455;48.732;10.266;2023-04-29T15:40:21;13.18;;;12.18;;
20593;SDS011;10455;48.732;10.266;2023-04-29T15:45:23;7.47;;;6.88;;
20593;SDS011;10455;48.732;10.266;2023-04-29T15:50:26;8.32;;;7.63;;
20593;SDS011;10455;48.732;10.266;2023-04-29T15:55:28;7.57;;;6.80;;
20593;SDS011;10455;48.732;10.266;2023-04-29T16:00:30;9.13;;;7.25;;
20593;SDS011;10455;48.732;10.266;2023-04-29T16:05:33;8.48;;;6.88;;
20593;SDS011;10455;48.732;10.266;2023-04-29T16:10:36;7.38;;;6.72;;
20593;SDS011;10455;48.732;10.266;2023-04-29T16:15:37;7.30;;;6.55;;
20593;SDS011;10455;48.732;10.266;2023-04-29T16:20:41;6.97;;;6.32;;
20593;SDS011;10455;48.732;10.266;2023-04-29T16:25:44;7.13;;;6.30;;
20593;SDS011;10455;48.732;10.266;2023-04-29T16:30:45;8.65;;;7.78;;
20593;SDS011;10455;48.732;10.266;2023-04-29T16:35:49;9.93;;;8.95;;
20593;SDS011;10455;48.732;10.266;2023-04-29T16:40:51;8.90;;;8.10;;
20593;SDS011;10455;48.732;10.266;2023-04-29T16:45:53;10.07;;;9.27;;
20593;SDS011;10455;48.732;10.266;2023-04-29T16:50:56;10.95;;;9.85;;
20593;SDS011;10455;48.732;10.266;2023-04-29T16:55:58;9.60;;;8.77;;
20593;SDS011;10455;48.732;10.266;2023-04-29T17:01:00;10.80;;;9.80;;
20593;SDS011;10455;48.732;10.266;2023-04-29T17:06:05;11.45;;;9.82;;
20593;SDS011;10455;48.732;10.266;2023-04-29T17:11:07;10.90;;;9.80;;
20593;SDS011;10455;48.732;10.266;2023-04-29T17:16:09;11.50;;;9.52;;
20593;SDS011;10455;48.732;10.266;2023-04-29T17:21:14;9.55;;;8.50;;
20593;SDS011;10455;48.732;10.266;2023-04-29T17:26:16;10.27;;;9.27;;
20593;SDS011;10455;48.732;10.266;2023-04-29T17:31:18;10.23;;;9.13;;
20593;SDS011;10455;48.732;10.266;2023-04-29T17:36:25;10.02;;;9.13;;
20593;SDS011;10455;48.732;10.266;2023-04-29T17:41:27;13.40;;;12.10;;
20593;SDS011;10455;48.732;10.266;2023-04-29T17:46:29;10.00;;;9.10;;
20593;SDS011;10455;48.732;10.266;2023-04-29T17:51:33;11.32;;;9.38;;
20593;SDS011;10455;48.732;10.266;2023-04-29T17:56:35;13.10;;;11.32;;
20593;SDS011;10455;48.732;10.266;2023-04-29T18:01:37;11.07;;;10.10;;
20593;SDS011;10455;48.732;10.266;2023-04-29T18:06:40;9.90;;;9.00;;
20593;SDS011;10455;48.732;10.266;2023-04-29T18:11:42;11.68;;;9.13;;
20593;SDS011;10455;48.732;10.266;2023-04-29T18:16:45;10.33;;;9.23;;
20593;SDS011;10455;48.732;10.266;2023-04-29T18:21:48;10.60;;;9.50;;
20593;SDS011;10455;48.732;10.266;2023-04-29T18:26:50;13.20;;;11.80;;
20593;SDS011;10455;48.732;10.266;2023-04-29T18:31:51;11.57;;;10.37;;
20593;SDS011;10455;48.732;10.266;2023-04-29T18:36:55;9.93;;;9.03;;
20593;SDS011;10455;48.732;10.266;2023-04-29T18:41:57;10.60;;;9.53;;
20593;SDS011;10455;48.732;10.266;2023-04-29T18:46:59;10.03;;;9.03;;
20593;SDS011;10455;48.732;10.266;2023-04-29T18:52:03;10.80;;;8.93;;
20593;SDS011;10455;48.732;10.266;2023-04-29T18:57:05;10.07;;;9.07;;
20593;SDS011;10455;48.732;10.266;2023-04-29T19:02:07;10.93;;;9.83;;
20593;SDS011;10455;48.732;10.266;2023-04-29T19:07:10;10.67;;;9.57;;
20593;SDS011;10455;48.732;10.266;2023-04-29T19:12:12;14.83;;;11.33;;
20593;SDS011;10455;48.732;10.266;2023-04-29T19:17:14;11.40;;;10.20;;
20593;SDS011;10455;48.732;10.266;2023-04-29T19:22:17;9.53;;;8.73;;
20593;SDS011;10455;48.732;10.266;2023-04-29T19:27:19;9.03;;;8.23;;
20593;SDS011;10455;48.732;10.266;2023-04-29T19:32:21;13.13;;;11.77;;
20593;SDS011;10455;48.732;10.266;2023-04-29T19:37:24;10.10;;;9.10;;
20593;SDS011;10455;48.732;10.266;2023-04-29T19:42:26;10.13;;;9.17;;
20593;SDS011;10455;48.732;10.266;2023-04-29T19:47:28;10.57;;;9.57;;
20593;SDS011;10455;48.732;10.266;2023-04-29T19:52:31;9.40;;;8.50;;
20593;SDS011;10455;48.732;10.266;2023-04-29T19:57:33;9.90;;;8.97;;
20593;SDS011;10455;48.732;10.266;2023-04-29T20:02:35;10.37;;;9.27;;
20593;SDS011;10455;48.732;10.266;2023-04-29T20:07:38;11.67;;;10.43;;
20593;SDS011;10455;48.732;10.266;2023-04-29T20:12:40;12.90;;;11.37;;
20593;SDS011;10455;48.732;10.266;2023-04-29T20:17:42;10.63;;;9.53;;
20593;SDS011;10455;48.732;10.266;2023-04-29T20:22:46;11.73;;;10.53;;
20593;SDS011;10455;48.732;10.266;2023-04-29T20:27:48;24.83;;;22.70;;
20593;SDS011;10455;48.732;10.266;2023-04-29T20:32:49;63.23;;;36.20;;
20593;SDS011;10455;48.732;10.266;2023-04-29T20:37:53;17.03;;;13.67;;
20593;SDS011;10455;48.732;10.266;2023-04-29T20:42:55;10.60;;;9.60;;
20593;SDS011;10455;48.732;10.266;2023-04-29T20:47:57;10.10;;;9.10;;
20593;SDS011;10455;48.732;10.266;2023-04-29T20:53:01;11.33;;;10.13;;
20593;SDS011;10455;48.732;10.266;2023-04-29T20:58:03;10.83;;;9.67;;
20593;SDS011;10455;48.732;10.266;2023-04-29T21:03:05;10.57;;;9.50;;
20593;SDS011;10455;48.732;10.266;2023-04-29T21:08:08;10.03;;;9.03;;
20593;SDS011;10455;48.732;10.266;2023-04-29T21:13:10;10.50;;;9.37;;
20593;SDS011;10455;48.732;10.266;2023-04-29T21:18:13;10.03;;;9.13;;
20593;SDS011;10455;48.732;10.266;2023-04-29T21:23:16;10.47;;;9.47;;
20593;SDS011;10455;48.732;10.266;2023-04-29T21:28:18;9.63;;;8.73;;
20593;SDS011;10455;48.732;10.266;2023-04-29T21:33:20;9.97;;;8.97;;
20593;SDS011;10455;48.732;10.266;2023-04-29T21:38:23;9.93;;;8.97;;
20593;SDS011;10455;48.732;10.266;2023-04-29T21:43:25;8.57;;;7.70;;
20593;SDS011;10455;48.732;10.266;2023-04-29T21:48:28;8.30;;;7.50;;
20593;SDS011;10455;48.732;10.266;2023-04-29T21:53:31;8.40;;;7.70;;
20593;SDS011;10455;48.732;10.266;2023-04-29T21:58:33;8.03;;;7.33;;
20593;SDS011;10455;48.732;10.266;2023-04-29T22:03:35;9.23;;;8.30;;
20593;SDS011;10455;48.732;10.266;2023-04-29T22:08:39;9.80;;;8.80;;
20593;SDS011;10455;48.732;10.266;2023-04-29T22:13:41;10.90;;;9.80;;
20593;SDS011;10455;48.732;10.266;2023-04-29T22:18:44;10.83;;;8.90;;
20593;SDS011;10455;48.732;10.266;2023-04-29T22:23:48;9.50;;;8.60;;
20593;SDS011;10455;48.732;10.266;2023-04-29T22:28:50;11.93;;;9.50;;
20593;SDS011;10455;48.732;10.266;2023-04-29T22:33:52;9.83;;;8.90;;
20593;SDS011;10455;48.732;10.266;2023-04-29T22:38:55;10.83;;;9.73;;
20593;SDS011;10455;48.732;10.266;2023-04-29T22:43:57;10.77;;;9.73;;
20593;SDS011;10455;48.732;10.266;2023-04-29T22:49:00;10.50;;;9.07;;
20593;SDS011;10455;48.732;10.266;2023-04-29T22:54:03;9.73;;;8.83;;
20593;SDS011;10455;48.732;10.266;2023-04-29T22:59:05;9.27;;;8.27;;
20593;SDS011;10455;48.732;10.266;2023-04-29T23:04:07;9.70;;;8.70;;
20593;SDS011;10455;48.732;10.266;2023-04-29T23:09:10;11.17;;;10.20;;
20593;SDS011;10455;48.732;10.266;2023-04-29T23:14:12;11.00;;;10.10;;
20593;SDS011;10455;48.732;10.266;2023-04-29T23:19:14;11.33;;;10.23;;
20593;SDS011;10455;48.732;10.266;2023-04-29T23:24:17;11.17;;;10.07;;
20593;SDS011;10455;48.732;10.266;2023-04-29T23:29:19;10.50;;;9.50;;
20593;SDS011;10455;48.732;10.266;2023-04-29T23:34:20;12.13;;;10.50;;
20593;SDS011;10455;48.732;10.266;2023-04-29T23:39:24;12.33;;;10.77;;
20593;SDS011;10455;48.732;10.266;2023-04-29T23:44:26;12.63;;;11.23;;
20593;SDS011;10455;48.732;10.266;2023-04-29T23:49:27;13.80;;;12.00;;
20593;SDS011;10455;48.732;10.266;2023-04-29T23:54:31;13.93;;;11.50;;
20593;SDS011;10455;48.732;10.266;2023-04-29T23:59:32;12.07;;;10.87;;
